sensor_id;sensor_type;location;lat;lon;timestamp;P1;durP1;ratioP1;P2;durP2;ratioP2
66628;SDS011;53532;53.084;6.352;2023-04-23T00:01:11;131.02;;;37.28;;
66628;SDS011;53532;53.084;6.352;2023-04-23T00:03:38;112.25;;;36.58;;
66628;SDS011;53532;53.084;6.352;2023-04-23T00:06:07;129.95;;;37.70;;
66628;SDS011;53532;53.084;6.352;2023-04-23T00:08:37;245.77;;;42.67;;
66628;SDS011;53532;53.084;6.352;2023-04-23T00:11:06;230.65;;;45.67;;
66628;SDS011;53532;53.084;6.352;2023-04-23T00:13:32;227.38;;;47.05;;
66628;SDS011;53532;53.084;6.352;2023-04-23T00:15:59;160.27;;;44.55;;
66628;SDS011;53532;53.084;6.352;2023-04-23T00:18:25;82.05;;;37.67;;
66628;SDS011;53532;53.084;6.352;2023-04-23T00:20:51;78.82;;;37.20;;
66628;SDS011;53532;53.084;6.352;2023-04-23T00:23:17;61.05;;;35.08;;
66628;SDS011;53532;53.084;6.352;2023-04-23T00:25:43;106.60;;;39.33;;
66628;SDS011;53532;53.084;6.352;2023-04-23T00:28:11;87.53;;;38.08;;
66628;SDS011;53532;53.084;6.352;2023-04-23T00:30:37;95.57;;;38.17;;
66628;SDS011;53532;53.084;6.352;2023-04-23T00:33:04;96.40;;;38.70;;
66628;SDS011;53532;53.084;6.352;2023-04-23T00:35:30;80.60;;;37.35;;
66628;SDS011;53532;53.084;6.352;2023-04-23T00:37:56;101.13;;;39.35;;
66628;SDS011;53532;53.084;6.352;2023-04-23T00:40:22;103.03;;;39.40;;
66628;SDS011;53532;53.084;6.352;2023-04-23T00:42:48;87.05;;;39.28;;
66628;SDS011;53532;53.084;6.352;2023-04-23T00:45:19;74.90;;;37.97;;
66628;SDS011;53532;53.084;6.352;2023-04-23T00:47:45;85.93;;;39.78;;
66628;SDS011;53532;53.084;6.352;2023-04-23T00:50:11;82.20;;;38.60;;
66628;SDS011;53532;53.084;6.352;2023-04-23T00:52:38;74.32;;;36.45;;
66628;SDS011;53532;53.084;6.352;2023-04-23T00:55:05;104.00;;;40.58;;
66628;SDS011;53532;53.084;6.352;2023-04-23T00:57:32;142.70;;;43.25;;
66628;SDS011;53532;53.084;6.352;2023-04-23T00:59:58;97.35;;;38.67;;
66628;SDS011;53532;53.084;6.352;2023-04-23T01:02:26;111.82;;;39.70;;
66628;SDS011;53532;53.084;6.352;2023-04-23T01:04:54;128.00;;;41.10;;
66628;SDS011;53532;53.084;6.352;2023-04-23T01:07:20;119.05;;;42.60;;
66628;SDS011;53532;53.084;6.352;2023-04-23T01:09:47;121.63;;;41.58;;
66628;SDS011;53532;53.084;6.352;2023-04-23T01:12:14;127.72;;;43.00;;
66628;SDS011;53532;53.084;6.352;2023-04-23T01:14:41;112.57;;;41.30;;
66628;SDS011;53532;53.084;6.352;2023-04-23T01:17:07;122.63;;;45.05;;
66628;SDS011;53532;53.084;6.352;2023-04-23T01:19:37;109.82;;;41.05;;
66628;SDS011;53532;53.084;6.352;2023-04-23T01:22:08;96.10;;;40.63;;
66628;SDS011;53532;53.084;6.352;2023-04-23T01:24:34;103.03;;;41.80;;
66628;SDS011;53532;53.084;6.352;2023-04-23T01:27:01;98.78;;;42.40;;
66628;SDS011;53532;53.084;6.352;2023-04-23T01:29:27;93.55;;;41.97;;
66628;SDS011;53532;53.084;6.352;2023-04-23T01:31:55;107.00;;;44.35;;
66628;SDS011;53532;53.084;6.352;2023-04-23T01:34:22;107.55;;;45.30;;
66628;SDS011;53532;53.084;6.352;2023-04-23T01:36:48;95.95;;;46.38;;
66628;SDS011;53532;53.084;6.352;2023-04-23T01:39:16;124.35;;;48.33;;
66628;SDS011;53532;53.084;6.352;2023-04-23T01:41:42;110.03;;;47.35;;
66628;SDS011;53532;53.084;6.352;2023-04-23T01:44:08;128.73;;;49.60;;
66628;SDS011;53532;53.084;6.352;2023-04-23T01:46:35;131.48;;;50.10;;
66628;SDS011;53532;53.084;6.352;2023-04-23T01:49:01;172.95;;;53.92;;
66628;SDS011;53532;53.084;6.352;2023-04-23T01:51:28;159.02;;;54.05;;
66628;SDS011;53532;53.084;6.352;2023-04-23T01:53:54;165.85;;;52.53;;
66628;SDS011;53532;53.084;6.352;2023-04-23T01:56:24;119.90;;;49.25;;
66628;SDS011;53532;53.084;6.352;2023-04-23T01:58:50;174.65;;;53.13;;
66628;SDS011;53532;53.084;6.352;2023-04-23T02:01:16;149.30;;;51.92;;
66628;SDS011;53532;53.084;6.352;2023-04-23T02:03:43;132.77;;;51.22;;
66628;SDS011;53532;53.084;6.352;2023-04-23T02:06:09;171.45;;;55.40;;
66628;SDS011;53532;53.084;6.352;2023-04-23T02:08:36;145.00;;;54.10;;
66628;SDS011;53532;53.084;6.352;2023-04-23T02:11:02;146.02;;;53.45;;
66628;SDS011;53532;53.084;6.352;2023-04-23T02:13:32;185.52;;;59.92;;
66628;SDS011;53532;53.084;6.352;2023-04-23T02:15:58;183.43;;;59.88;;
66628;SDS011;53532;53.084;6.352;2023-04-23T02:18:24;202.73;;;61.25;;
66628;SDS011;53532;53.084;6.352;2023-04-23T02:20:50;165.57;;;60.20;;
66628;SDS011;53532;53.084;6.352;2023-04-23T02:23:16;297.75;;;77.95;;
66628;SDS011;53532;53.084;6.352;2023-04-23T02:25:43;254.50;;;75.70;;
66628;SDS011;53532;53.084;6.352;2023-04-23T02:28:10;307.67;;;80.68;;
66628;SDS011;53532;53.084;6.352;2023-04-23T02:30:38;431.27;;;90.80;;
66628;SDS011;53532;53.084;6.352;2023-04-23T02:33:09;687.05;;;112.97;;
66628;SDS011;53532;53.084;6.352;2023-04-23T02:35:36;422.38;;;97.50;;
66628;SDS011;53532;53.084;6.352;2023-04-23T02:38:02;437.25;;;98.28;;
66628;SDS011;53532;53.084;6.352;2023-04-23T02:40:28;675.15;;;119.57;;
66628;SDS011;53532;53.084;6.352;2023-04-23T02:42:55;655.75;;;117.15;;
66628;SDS011;53532;53.084;6.352;2023-04-23T02:45:21;848.88;;;126.72;;
66628;SDS011;53532;53.084;6.352;2023-04-23T02:47:49;861.65;;;127.43;;
66628;SDS011;53532;53.084;6.352;2023-04-23T02:50:17;697.15;;;116.93;;
66628;SDS011;53532;53.084;6.352;2023-04-23T02:52:43;454.70;;;94.55;;
66628;SDS011;53532;53.084;6.352;2023-04-23T02:55:10;714.10;;;114.07;;
66628;SDS011;53532;53.084;6.352;2023-04-23T02:57:36;696.10;;;112.13;;
66628;SDS011;53532;53.084;6.352;2023-04-23T03:00:03;707.47;;;115.18;;
66628;SDS011;53532;53.084;6.352;2023-04-23T03:02:33;584.17;;;104.82;;
66628;SDS011;53532;53.084;6.352;2023-04-23T03:05:00;582.38;;;106.35;;
66628;SDS011;53532;53.084;6.352;2023-04-23T03:07:27;627.92;;;114.13;;
66628;SDS011;53532;53.084;6.352;2023-04-23T03:09:53;573.10;;;108.25;;
66628;SDS011;53532;53.084;6.352;2023-04-23T03:12:19;461.23;;;99.45;;
66628;SDS011;53532;53.084;6.352;2023-04-23T03:14:45;594.78;;;110.15;;
66628;SDS011;53532;53.084;6.352;2023-04-23T03:17:11;572.80;;;109.28;;
66628;SDS011;53532;53.084;6.352;2023-04-23T03:19:37;913.17;;;133.40;;
66628;SDS011;53532;53.084;6.352;2023-04-23T03:22:05;376.00;;;91.78;;
66628;SDS011;53532;53.084;6.352;2023-04-23T03:24:31;687.58;;;120.07;;
66628;SDS011;53532;53.084;6.352;2023-04-23T03:26:57;634.30;;;112.68;;
66628;SDS011;53532;53.084;6.352;2023-04-23T03:29:24;501.20;;;100.80;;
66628;SDS011;53532;53.084;6.352;2023-04-23T03:31:50;625.42;;;113.07;;
66628;SDS011;53532;53.084;6.352;2023-04-23T03:34:16;556.92;;;106.50;;
66628;SDS011;53532;53.084;6.352;2023-04-23T03:36:42;521.88;;;110.78;;
66628;SDS011;53532;53.084;6.352;2023-04-23T03:39:11;634.10;;;114.95;;
66628;SDS011;53532;53.084;6.352;2023-04-23T03:41:37;561.97;;;109.78;;
66628;SDS011;53532;53.084;6.352;2023-04-23T03:44:04;689.38;;;124.53;;
66628;SDS011;53532;53.084;6.352;2023-04-23T03:46:30;630.63;;;117.97;;
66628;SDS011;53532;53.084;6.352;2023-04-23T03:48:56;549.78;;;112.20;;
66628;SDS011;53532;53.084;6.352;2023-04-23T03:51:22;488.15;;;105.25;;
66628;SDS011;53532;53.084;6.352;2023-04-23T03:53:48;505.20;;;106.72;;
66628;SDS011;53532;53.084;6.352;2023-04-23T03:56:17;447.02;;;102.05;;
66628;SDS011;53532;53.084;6.352;2023-04-23T03:58:43;648.25;;;120.05;;
66628;SDS011;53532;53.084;6.352;2023-04-23T04:01:09;556.63;;;111.45;;
66628;SDS011;53532;53.084;6.352;2023-04-23T04:03:35;489.58;;;106.53;;
66628;SDS011;53532;53.084;6.352;2023-04-23T04:06:02;534.92;;;108.38;;
66628;SDS011;53532;53.084;6.352;2023-04-23T04:08:28;619.00;;;117.82;;
66628;SDS011;53532;53.084;6.352;2023-04-23T04:10:54;480.15;;;105.13;;
66628;SDS011;53532;53.084;6.352;2023-04-23T04:13:22;593.55;;;112.75;;
66628;SDS011;53532;53.084;6.352;2023-04-23T04:15:48;424.92;;;97.75;;
66628;SDS011;53532;53.084;6.352;2023-04-23T04:18:14;374.38;;;95.72;;
66628;SDS011;53532;53.084;6.352;2023-04-23T04:20:40;514.33;;;100.75;;
66628;SDS011;53532;53.084;6.352;2023-04-23T04:23:08;559.30;;;106.25;;
66628;SDS011;53532;53.084;6.352;2023-04-23T04:25:34;400.27;;;98.65;;
66628;SDS011;53532;53.084;6.352;2023-04-23T04:28:04;320.25;;;89.40;;
66628;SDS011;53532;53.084;6.352;2023-04-23T04:30:33;324.75;;;90.03;;
66628;SDS011;53532;53.084;6.352;2023-04-23T04:32:59;354.10;;;89.85;;
66628;SDS011;53532;53.084;6.352;2023-04-23T04:35:25;323.92;;;88.45;;
66628;SDS011;53532;53.084;6.352;2023-04-23T04:37:52;301.20;;;89.43;;
66628;SDS011;53532;53.084;6.352;2023-04-23T04:40:18;280.33;;;84.88;;
66628;SDS011;53532;53.084;6.352;2023-04-23T04:42:45;297.85;;;89.38;;
66628;SDS011;53532;53.084;6.352;2023-04-23T04:45:11;282.73;;;86.85;;
66628;SDS011;53532;53.084;6.352;2023-04-23T04:47:39;241.95;;;81.30;;
66628;SDS011;53532;53.084;6.352;2023-04-23T04:50:06;257.98;;;81.00;;
66628;SDS011;53532;53.084;6.352;2023-04-23T04:52:32;303.50;;;85.47;;
66628;SDS011;53532;53.084;6.352;2023-04-23T04:54:58;303.77;;;87.70;;
66628;SDS011;53532;53.084;6.352;2023-04-23T04:57:24;219.35;;;78.28;;
66628;SDS011;53532;53.084;6.352;2023-04-23T04:59:50;239.40;;;80.22;;
66628;SDS011;53532;53.084;6.352;2023-04-23T05:02:17;237.40;;;78.70;;
66628;SDS011;53532;53.084;6.352;2023-04-23T05:04:47;221.55;;;76.63;;
66628;SDS011;53532;53.084;6.352;2023-04-23T05:07:13;225.35;;;77.22;;
66628;SDS011;53532;53.084;6.352;2023-04-23T05:09:39;243.68;;;77.00;;
66628;SDS011;53532;53.084;6.352;2023-04-23T05:12:05;230.63;;;79.70;;
66628;SDS011;53532;53.084;6.352;2023-04-23T05:14:32;206.65;;;74.55;;
66628;SDS011;53532;53.084;6.352;2023-04-23T05:16:58;230.60;;;75.45;;
66628;SDS011;53532;53.084;6.352;2023-04-23T05:19:24;194.43;;;72.97;;
66628;SDS011;53532;53.084;6.352;2023-04-23T05:21:52;196.65;;;72.85;;
66628;SDS011;53532;53.084;6.352;2023-04-23T05:24:18;182.13;;;68.75;;
66628;SDS011;53532;53.084;6.352;2023-04-23T05:26:44;172.13;;;67.43;;
66628;SDS011;53532;53.084;6.352;2023-04-23T05:29:10;179.88;;;69.78;;
66628;SDS011;53532;53.084;6.352;2023-04-23T05:31:41;169.23;;;68.45;;
66628;SDS011;53532;53.084;6.352;2023-04-23T05:34:08;150.32;;;64.72;;
66628;SDS011;53532;53.084;6.352;2023-04-23T05:36:34;161.18;;;66.28;;
66628;SDS011;53532;53.084;6.352;2023-04-23T05:39:02;169.70;;;67.70;;
66628;SDS011;53532;53.084;6.352;2023-04-23T05:41:28;153.25;;;65.07;;
66628;SDS011;53532;53.084;6.352;2023-04-23T05:43:54;208.50;;;70.43;;
66628;SDS011;53532;53.084;6.352;2023-04-23T05:46:20;149.55;;;66.80;;
66628;SDS011;53532;53.084;6.352;2023-04-23T05:48:46;151.23;;;65.45;;
66628;SDS011;53532;53.084;6.352;2023-04-23T05:51:12;163.52;;;66.15;;
66628;SDS011;53532;53.084;6.352;2023-04-23T05:53:39;158.65;;;69.65;;
66628;SDS011;53532;53.084;6.352;2023-04-23T05:56:06;149.63;;;66.75;;
66628;SDS011;53532;53.084;6.352;2023-04-23T05:58:32;164.63;;;71.25;;
66628;SDS011;53532;53.084;6.352;2023-04-23T06:00:59;181.15;;;74.20;;
66628;SDS011;53532;53.084;6.352;2023-04-23T06:03:25;157.57;;;69.82;;
66628;SDS011;53532;53.084;6.352;2023-04-23T06:05:51;152.43;;;71.95;;
66628;SDS011;53532;53.084;6.352;2023-04-23T06:08:17;146.10;;;71.13;;
66628;SDS011;53532;53.084;6.352;2023-04-23T06:10:44;157.77;;;70.70;;
66628;SDS011;53532;53.084;6.352;2023-04-23T06:13:11;140.25;;;67.72;;
66628;SDS011;53532;53.084;6.352;2023-04-23T06:15:38;138.05;;;68.47;;
66628;SDS011;53532;53.084;6.352;2023-04-23T06:18:04;130.88;;;67.30;;
66628;SDS011;53532;53.084;6.352;2023-04-23T06:20:30;136.15;;;65.43;;
66628;SDS011;53532;53.084;6.352;2023-04-23T06:22:56;133.40;;;66.22;;
66628;SDS011;53532;53.084;6.352;2023-04-23T06:25:23;132.30;;;70.53;;
66628;SDS011;53532;53.084;6.352;2023-04-23T06:27:49;120.25;;;64.60;;
66628;SDS011;53532;53.084;6.352;2023-04-23T06:30:17;122.47;;;64.13;;
66628;SDS011;53532;53.084;6.352;2023-04-23T06:32:43;107.05;;;58.30;;
66628;SDS011;53532;53.084;6.352;2023-04-23T06:35:09;107.65;;;58.35;;
66628;SDS011;53532;53.084;6.352;2023-04-23T06:37:35;111.28;;;58.45;;
66628;SDS011;53532;53.084;6.352;2023-04-23T06:40:02;104.63;;;59.38;;
66628;SDS011;53532;53.084;6.352;2023-04-23T06:42:28;99.32;;;56.92;;
66628;SDS011;53532;53.084;6.352;2023-04-23T06:44:55;97.30;;;57.35;;
66628;SDS011;53532;53.084;6.352;2023-04-23T06:47:24;104.15;;;57.85;;
66628;SDS011;53532;53.084;6.352;2023-04-23T06:49:51;89.95;;;54.60;;
66628;SDS011;53532;53.084;6.352;2023-04-23T06:52:17;90.47;;;55.33;;
66628;SDS011;53532;53.084;6.352;2023-04-23T06:54:43;89.88;;;54.72;;
66628;SDS011;53532;53.084;6.352;2023-04-23T06:57:09;87.90;;;54.00;;
66628;SDS011;53532;53.084;6.352;2023-04-23T06:59:35;86.45;;;53.75;;
66628;SDS011;53532;53.084;6.352;2023-04-23T07:02:02;81.53;;;52.30;;
66628;SDS011;53532;53.084;6.352;2023-04-23T07:04:30;85.45;;;51.97;;
66628;SDS011;53532;53.084;6.352;2023-04-23T07:06:56;76.38;;;49.22;;
66628;SDS011;53532;53.084;6.352;2023-04-23T07:09:22;71.70;;;48.28;;
66628;SDS011;53532;53.084;6.352;2023-04-23T07:11:49;69.20;;;48.20;;
66628;SDS011;53532;53.084;6.352;2023-04-23T07:14:15;71.93;;;48.17;;
66628;SDS011;53532;53.084;6.352;2023-04-23T07:16:41;67.68;;;45.60;;
66628;SDS011;53532;53.084;6.352;2023-04-23T07:19:08;66.60;;;45.90;;
66628;SDS011;53532;53.084;6.352;2023-04-23T07:21:35;57.53;;;42.30;;
66628;SDS011;53532;53.084;6.352;2023-04-23T07:24:01;60.22;;;43.42;;
66628;SDS011;53532;53.084;6.352;2023-04-23T07:26:31;57.03;;;42.70;;
66628;SDS011;53532;53.084;6.352;2023-04-23T07:28:57;55.40;;;41.15;;
66628;SDS011;53532;53.084;6.352;2023-04-23T07:31:23;59.90;;;43.42;;
66628;SDS011;53532;53.084;6.352;2023-04-23T07:33:50;54.95;;;41.28;;
66628;SDS011;53532;53.084;6.352;2023-04-23T07:36:16;54.53;;;39.97;;
66628;SDS011;53532;53.084;6.352;2023-04-23T07:38:44;53.70;;;40.63;;
66628;SDS011;53532;53.084;6.352;2023-04-23T07:41:10;55.10;;;40.13;;
66628;SDS011;53532;53.084;6.352;2023-04-23T07:43:36;53.00;;;40.47;;
66628;SDS011;53532;53.084;6.352;2023-04-23T07:46:03;52.00;;;39.60;;
66628;SDS011;53532;53.084;6.352;2023-04-23T07:48:29;52.13;;;39.65;;
66628;SDS011;53532;53.084;6.352;2023-04-23T07:50:55;53.17;;;39.95;;
66628;SDS011;53532;53.084;6.352;2023-04-23T07:53:21;47.75;;;37.10;;
66628;SDS011;53532;53.084;6.352;2023-04-23T07:55:49;47.35;;;36.88;;
66628;SDS011;53532;53.084;6.352;2023-04-23T07:58:15;46.33;;;36.80;;
66628;SDS011;53532;53.084;6.352;2023-04-23T08:00:41;46.20;;;36.22;;
66628;SDS011;53532;53.084;6.352;2023-04-23T08:03:07;43.20;;;35.50;;
66628;SDS011;53532;53.084;6.352;2023-04-23T08:05:34;45.20;;;34.92;;
66628;SDS011;53532;53.084;6.352;2023-04-23T08:08:02;42.67;;;33.90;;
66628;SDS011;53532;53.084;6.352;2023-04-23T08:10:28;45.38;;;35.28;;
66628;SDS011;53532;53.084;6.352;2023-04-23T08:12:56;47.20;;;34.83;;
66628;SDS011;53532;53.084;6.352;2023-04-23T08:15:22;41.90;;;34.05;;
66628;SDS011;53532;53.084;6.352;2023-04-23T08:17:48;42.50;;;32.58;;
66628;SDS011;53532;53.084;6.352;2023-04-23T08:20:14;40.45;;;32.55;;
66628;SDS011;53532;53.084;6.352;2023-04-23T08:22:41;40.30;;;32.10;;
66628;SDS011;53532;53.084;6.352;2023-04-23T08:25:07;41.00;;;30.92;;
66628;SDS011;53532;53.084;6.352;2023-04-23T08:27:34;38.70;;;31.23;;
66628;SDS011;53532;53.084;6.352;2023-04-23T08:30:02;36.72;;;29.90;;
66628;SDS011;53532;53.084;6.352;2023-04-23T08:32:28;34.15;;;28.08;;
66628;SDS011;53532;53.084;6.352;2023-04-23T08:34:54;37.03;;;29.52;;
66628;SDS011;53532;53.084;6.352;2023-04-23T08:37:20;35.22;;;28.63;;
66628;SDS011;53532;53.084;6.352;2023-04-23T08:39:47;36.90;;;30.23;;
66628;SDS011;53532;53.084;6.352;2023-04-23T08:42:14;33.58;;;27.58;;
66628;SDS011;53532;53.084;6.352;2023-04-23T08:44:41;36.72;;;30.30;;
66628;SDS011;53532;53.084;6.352;2023-04-23T08:47:10;35.97;;;27.67;;
66628;SDS011;53532;53.084;6.352;2023-04-23T08:49:37;34.05;;;27.90;;
66628;SDS011;53532;53.084;6.352;2023-04-23T08:52:09;34.20;;;27.70;;
66628;SDS011;53532;53.084;6.352;2023-04-23T08:54:36;31.92;;;26.13;;
66628;SDS011;53532;53.084;6.352;2023-04-23T08:57:06;30.08;;;24.88;;
66628;SDS011;53532;53.084;6.352;2023-04-23T08:59:33;30.55;;;25.13;;
66628;SDS011;53532;53.084;6.352;2023-04-23T09:02:00;34.13;;;27.02;;
66628;SDS011;53532;53.084;6.352;2023-04-23T09:04:33;30.10;;;24.58;;
66628;SDS011;53532;53.084;6.352;2023-04-23T09:06:59;30.88;;;23.27;;
66628;SDS011;53532;53.084;6.352;2023-04-23T09:09:26;28.23;;;23.00;;
66628;SDS011;53532;53.084;6.352;2023-04-23T09:11:53;26.42;;;21.52;;
66628;SDS011;53532;53.084;6.352;2023-04-23T09:14:19;25.20;;;20.25;;
66628;SDS011;53532;53.084;6.352;2023-04-23T09:16:47;25.85;;;21.48;;
66628;SDS011;53532;53.084;6.352;2023-04-23T09:19:13;23.98;;;18.20;;
66628;SDS011;53532;53.084;6.352;2023-04-23T09:21:41;17.67;;;14.25;;
66628;SDS011;53532;53.084;6.352;2023-04-23T09:24:08;20.70;;;15.65;;
66628;SDS011;53532;53.084;6.352;2023-04-23T09:26:42;20.92;;;15.25;;
66628;SDS011;53532;53.084;6.352;2023-04-23T09:29:11;21.73;;;15.23;;
66628;SDS011;53532;53.084;6.352;2023-04-23T09:31:37;20.10;;;14.88;;
66628;SDS011;53532;53.084;6.352;2023-04-23T09:34:04;19.30;;;14.18;;
66628;SDS011;53532;53.084;6.352;2023-04-23T09:36:32;21.08;;;15.77;;
66628;SDS011;53532;53.084;6.352;2023-04-23T09:39:01;21.52;;;15.52;;
66628;SDS011;53532;53.084;6.352;2023-04-23T09:41:27;19.70;;;14.75;;
66628;SDS011;53532;53.084;6.352;2023-04-23T09:43:55;19.00;;;14.85;;
66628;SDS011;53532;53.084;6.352;2023-04-23T09:46:31;21.10;;;15.05;;
66628;SDS011;53532;53.084;6.352;2023-04-23T09:48:59;19.13;;;13.27;;
66628;SDS011;53532;53.084;6.352;2023-04-23T09:51:25;17.95;;;11.90;;
66628;SDS011;53532;53.084;6.352;2023-04-23T09:53:52;13.88;;;9.20;;
66628;SDS011;53532;53.084;6.352;2023-04-23T09:56:19;15.00;;;9.65;;
66628;SDS011;53532;53.084;6.352;2023-04-23T09:58:46;16.35;;;9.75;;
66628;SDS011;53532;53.084;6.352;2023-04-23T10:01:12;14.57;;;7.72;;
66628;SDS011;53532;53.084;6.352;2023-04-23T10:03:41;14.60;;;7.55;;
66628;SDS011;53532;53.084;6.352;2023-04-23T10:06:08;13.95;;;8.43;;
66628;SDS011;53532;53.084;6.352;2023-04-23T10:08:38;15.15;;;9.02;;
66628;SDS011;53532;53.084;6.352;2023-04-23T10:11:04;14.13;;;9.00;;
66628;SDS011;53532;53.084;6.352;2023-04-23T10:13:33;13.63;;;9.15;;
66628;SDS011;53532;53.084;6.352;2023-04-23T10:15:59;15.15;;;8.75;;
66628;SDS011;53532;53.084;6.352;2023-04-23T10:18:26;13.90;;;8.55;;
66628;SDS011;53532;53.084;6.352;2023-04-23T10:20:53;14.23;;;9.02;;
66628;SDS011;53532;53.084;6.352;2023-04-23T10:23:19;15.43;;;8.20;;
66628;SDS011;53532;53.084;6.352;2023-04-23T10:25:46;13.05;;;8.27;;
66628;SDS011;53532;53.084;6.352;2023-04-23T10:28:13;12.73;;;6.70;;
66628;SDS011;53532;53.084;6.352;2023-04-23T10:30:41;13.25;;;6.32;;
66628;SDS011;53532;53.084;6.352;2023-04-23T10:33:07;12.68;;;7.07;;
66628;SDS011;53532;53.084;6.352;2023-04-23T10:35:34;10.25;;;4.90;;
66628;SDS011;53532;53.084;6.352;2023-04-23T10:38:01;11.55;;;5.50;;
66628;SDS011;53532;53.084;6.352;2023-04-23T10:40:29;9.95;;;5.70;;
66628;SDS011;53532;53.084;6.352;2023-04-23T10:42:55;10.63;;;4.85;;
66628;SDS011;53532;53.084;6.352;2023-04-23T10:45:21;10.68;;;5.57;;
66628;SDS011;53532;53.084;6.352;2023-04-23T10:47:49;8.70;;;4.68;;
66628;SDS011;53532;53.084;6.352;2023-04-23T10:50:19;11.27;;;4.72;;
66628;SDS011;53532;53.084;6.352;2023-04-23T10:52:46;11.63;;;4.95;;
66628;SDS011;53532;53.084;6.352;2023-04-23T10:55:18;10.02;;;4.47;;
66628;SDS011;53532;53.084;6.352;2023-04-23T10:57:54;11.57;;;4.70;;
66628;SDS011;53532;53.084;6.352;2023-04-23T11:00:22;8.60;;;3.92;;
66628;SDS011;53532;53.084;6.352;2023-04-23T11:02:50;8.43;;;3.60;;
66628;SDS011;53532;53.084;6.352;2023-04-23T11:05:20;10.10;;;4.22;;
66628;SDS011;53532;53.084;6.352;2023-04-23T11:08:00;11.23;;;4.20;;
66628;SDS011;53532;53.084;6.352;2023-04-23T11:10:27;8.25;;;3.10;;
66628;SDS011;53532;53.084;6.352;2023-04-23T11:12:54;7.15;;;2.58;;
66628;SDS011;53532;53.084;6.352;2023-04-23T11:15:20;6.32;;;2.65;;
66628;SDS011;53532;53.084;6.352;2023-04-23T11:18:00;6.78;;;2.92;;
66628;SDS011;53532;53.084;6.352;2023-04-23T11:20:26;9.57;;;3.47;;
66628;SDS011;53532;53.084;6.352;2023-04-23T11:22:52;8.52;;;3.10;;
66628;SDS011;53532;53.084;6.352;2023-04-23T11:25:19;9.57;;;3.15;;
66628;SDS011;53532;53.084;6.352;2023-04-23T11:27:46;8.30;;;2.95;;
66628;SDS011;53532;53.084;6.352;2023-04-23T11:30:13;7.25;;;2.60;;
66628;SDS011;53532;53.084;6.352;2023-04-23T11:32:39;7.13;;;2.80;;
66628;SDS011;53532;53.084;6.352;2023-04-23T11:35:08;8.45;;;2.58;;
66628;SDS011;53532;53.084;6.352;2023-04-23T11:37:37;4.97;;;2.38;;
66628;SDS011;53532;53.084;6.352;2023-04-23T11:40:04;7.57;;;2.60;;
66628;SDS011;53532;53.084;6.352;2023-04-23T11:42:32;8.50;;;2.90;;
66628;SDS011;53532;53.084;6.352;2023-04-23T11:45:06;8.50;;;2.67;;
66628;SDS011;53532;53.084;6.352;2023-04-23T11:47:33;8.85;;;2.67;;
66628;SDS011;53532;53.084;6.352;2023-04-23T11:49:59;6.50;;;2.70;;
66628;SDS011;53532;53.084;6.352;2023-04-23T11:52:27;8.05;;;2.90;;
66628;SDS011;53532;53.084;6.352;2023-04-23T11:54:53;9.15;;;3.30;;
66628;SDS011;53532;53.084;6.352;2023-04-23T11:57:20;7.60;;;2.70;;
66628;SDS011;53532;53.084;6.352;2023-04-23T11:59:46;7.32;;;2.80;;
66628;SDS011;53532;53.084;6.352;2023-04-23T12:02:12;8.82;;;2.75;;
66628;SDS011;53532;53.084;6.352;2023-04-23T12:04:38;8.82;;;2.80;;
66628;SDS011;53532;53.084;6.352;2023-04-23T12:07:04;8.30;;;3.00;;
66628;SDS011;53532;53.084;6.352;2023-04-23T12:09:32;7.78;;;2.92;;
66628;SDS011;53532;53.084;6.352;2023-04-23T12:12:00;7.82;;;2.85;;
66628;SDS011;53532;53.084;6.352;2023-04-23T12:14:27;7.97;;;2.33;;
66628;SDS011;53532;53.084;6.352;2023-04-23T12:16:54;8.60;;;2.72;;
66628;SDS011;53532;53.084;6.352;2023-04-23T12:19:23;7.45;;;2.45;;
66628;SDS011;53532;53.084;6.352;2023-04-23T12:21:51;6.65;;;1.98;;
66628;SDS011;53532;53.084;6.352;2023-04-23T12:24:20;8.27;;;2.50;;
66628;SDS011;53532;53.084;6.352;2023-04-23T12:26:49;6.25;;;1.58;;
66628;SDS011;53532;53.084;6.352;2023-04-23T12:29:18;8.07;;;1.92;;
66628;SDS011;53532;53.084;6.352;2023-04-23T12:31:45;6.32;;;1.70;;
66628;SDS011;53532;53.084;6.352;2023-04-23T12:34:11;7.35;;;1.95;;
66628;SDS011;53532;53.084;6.352;2023-04-23T12:36:42;8.13;;;1.98;;
66628;SDS011;53532;53.084;6.352;2023-04-23T12:39:19;9.23;;;1.85;;
66628;SDS011;53532;53.084;6.352;2023-04-23T12:41:45;7.43;;;1.83;;
66628;SDS011;53532;53.084;6.352;2023-04-23T12:44:13;7.80;;;1.70;;
66628;SDS011;53532;53.084;6.352;2023-04-23T12:46:39;6.78;;;1.70;;
66628;SDS011;53532;53.084;6.352;2023-04-23T12:49:05;7.03;;;1.88;;
66628;SDS011;53532;53.084;6.352;2023-04-23T12:51:32;7.55;;;1.73;;
66628;SDS011;53532;53.084;6.352;2023-04-23T12:53:58;6.93;;;1.92;;
66628;SDS011;53532;53.084;6.352;2023-04-23T12:56:24;4.82;;;1.55;;
66628;SDS011;53532;53.084;6.352;2023-04-23T12:58:51;7.32;;;1.60;;
66628;SDS011;53532;53.084;6.352;2023-04-23T13:01:18;5.43;;;1.63;;
66628;SDS011;53532;53.084;6.352;2023-04-23T13:03:45;4.82;;;1.45;;
66628;SDS011;53532;53.084;6.352;2023-04-23T13:06:11;9.52;;;2.00;;
66628;SDS011;53532;53.084;6.352;2023-04-23T13:08:37;7.68;;;1.75;;
66628;SDS011;53532;53.084;6.352;2023-04-23T13:11:03;6.78;;;1.70;;
66628;SDS011;53532;53.084;6.352;2023-04-23T13:13:29;5.18;;;1.50;;
66628;SDS011;53532;53.084;6.352;2023-04-23T13:15:55;6.85;;;1.52;;
66628;SDS011;53532;53.084;6.352;2023-04-23T13:18:23;7.90;;;1.52;;
66628;SDS011;53532;53.084;6.352;2023-04-23T13:20:49;7.40;;;1.95;;
66628;SDS011;53532;53.084;6.352;2023-04-23T13:23:15;5.82;;;1.40;;
66628;SDS011;53532;53.084;6.352;2023-04-23T13:25:42;6.85;;;1.73;;
66628;SDS011;53532;53.084;6.352;2023-04-23T13:28:08;6.30;;;1.63;;
66628;SDS011;53532;53.084;6.352;2023-04-23T13:30:34;7.78;;;1.60;;
66628;SDS011;53532;53.084;6.352;2023-04-23T13:33:00;5.95;;;1.75;;
66628;SDS011;53532;53.084;6.352;2023-04-23T13:35:28;6.25;;;1.33;;
66628;SDS011;53532;53.084;6.352;2023-04-23T13:37:54;5.43;;;1.70;;
66628;SDS011;53532;53.084;6.352;2023-04-23T13:40:20;6.20;;;1.60;;
66628;SDS011;53532;53.084;6.352;2023-04-23T13:42:46;8.02;;;2.22;;
66628;SDS011;53532;53.084;6.352;2023-04-23T13:45:14;5.75;;;1.50;;
66628;SDS011;53532;53.084;6.352;2023-04-23T13:47:40;5.35;;;1.45;;
66628;SDS011;53532;53.084;6.352;2023-04-23T13:50:07;6.00;;;1.40;;
66628;SDS011;53532;53.084;6.352;2023-04-23T13:52:35;6.07;;;1.40;;
66628;SDS011;53532;53.084;6.352;2023-04-23T13:55:03;7.63;;;1.63;;
66628;SDS011;53532;53.084;6.352;2023-04-23T13:57:31;5.85;;;1.50;;
66628;SDS011;53532;53.084;6.352;2023-04-23T13:59:57;6.35;;;1.40;;
66628;SDS011;53532;53.084;6.352;2023-04-23T14:02:24;5.65;;;1.50;;
66628;SDS011;53532;53.084;6.352;2023-04-23T14:04:51;5.57;;;1.33;;
66628;SDS011;53532;53.084;6.352;2023-04-23T14:07:17;6.78;;;1.50;;
66628;SDS011;53532;53.084;6.352;2023-04-23T14:09:44;5.65;;;1.40;;
66628;SDS011;53532;53.084;6.352;2023-04-23T14:12:11;4.80;;;1.58;;
66628;SDS011;53532;53.084;6.352;2023-04-23T14:14:38;5.40;;;1.52;;
66628;SDS011;53532;53.084;6.352;2023-04-23T14:17:04;8.38;;;1.70;;
66628;SDS011;53532;53.084;6.352;2023-04-23T14:19:30;6.18;;;1.73;;